首页
METAR-TAF:

METAR-TAF

机场 :

福島機場

郡山, 日本

纬度: 37-24N, 经度: 140-23E, 海拔: 372米

当前天气观测

该预报发布于5小时和49分钟前的11:00 UTC
风速5节,风向东南,在南转南东之间变化
温度 20°C
湿度 68%
气压 1018 hPa
能见度10公里或以上
少量云层高于3000英尺
散云层高于4000英尺
多云层高于5000英尺

METAR: RJSF 231100Z 13005KT 100V160 9999 FEW030 SCT040 BKN050 20/14 Q1018

时间: 01:49 (16:49 UTC)

预报

该预报发布于5小时和43分钟前的11:06 UTC
预报有效从23日的 12点(UTC)到 24日的 18点(UTC)
风速4节,风向东南
能见度10公里或以上
少量云层高于2000英尺
散云层高于3000英尺
多云层高于4000英尺
成为
从 24日的 06点(UTC)到 24日的 09点(UTC)
风速5节,风向
短暂存在
从 24日的 06点(UTC)到 24日的 12点(UTC)
能見度: 3000
少量云层高于500英尺
多云层高于800英尺
多云层高于2000英尺
阵雨, 轻雾

TAF: RJSF 231106Z 2312/2418 14004KT 9999 FEW020 SCT030 BKN040 BECMG 2406/2409 36005KT TEMPO 2406/2412 3000 SHRA BR FEW005 BKN008 BKN020

超过4000个机场的气象观测和天气预报(METAR&TAF报告)。

可查询的气象台以黄色和红色小点在地图上表示。

将鼠标移到小点上方,可查看气象台名称。

然后点击查看天气观测和预报。

如需切换地图:点击带黑十字的绿色按钮放大地图;点击带横线的绿色按钮缩小地图;或者点击绿色箭头查看邻近地区的地图。


METAR-TAF: